Time;durP1;ratioP1;P1;durP2;ratioP2;P2;SDS_P1;SDS_P2;PMS_P1;PMS_P2;Temp;Humidity;BMP_temperature;BMP_pressure;BME280_temperature;BME280_humidity;BME280_pressure;Samples;Min_cycle;Max_cycle;Signal;HPM_P1;HPM_P2
2022/07/26 00:01:40;;;;;;;3.73;2.30;;;22.90;86.80;;;;;;4934084;28;20454;-93
2022/07/26 00:04:06;;;;;;;2.57;2.37;;;22.80;87.00;;;;;;4932855;28;20589;-94
2022/07/26 00:06:32;;;;;;;4.70;3.70;;;22.90;90.10;;;;;;4928968;28;20461;-93
2022/07/26 00:08:58;;;;;;;3.90;3.00;;;22.90;90.70;;;;;;4970152;28;20187;-94
2022/07/26 00:11:25;;;;;;;3.23;2.93;;;22.90;90.50;;;;;;4932979;28;20601;-94
2022/07/26 00:13:51;;;;;;;3.23;2.27;;;22.90;89.60;;;;;;4959068;28;20561;-93
2022/07/26 00:16:18;;;;;;;3.67;2.50;;;22.80;88.90;;;;;;4960786;28;20548;-93
2022/07/26 00:18:46;;;;;;;5.17;2.40;;;22.80;88.30;;;;;;4924527;28;20478;-93
2022/07/26 00:21:12;;;;;;;3.00;2.30;;;22.80;88.70;;;;;;4935764;28;20462;-92
2022/07/26 00:23:38;;;;;;;4.00;3.13;;;22.70;89.10;;;;;;4961002;28;21056;-93
2022/07/26 00:26:08;;;;;;;2.50;2.30;;;22.80;88.90;;;;;;4930770;28;21354;-93
2022/07/26 00:28:45;;;;;;;1.80;1.67;;;22.80;88.90;;;;;;4967878;28;20195;-94
2022/07/26 00:31:11;;;;;;;3.50;2.00;;;22.90;88.70;;;;;;4948773;28;20501;-94
2022/07/26 00:33:38;;;;;;;3.07;2.67;;;22.80;88.50;;;;;;4936202;28;20450;-94
2022/07/26 00:36:03;;;;;;;3.40;2.53;;;22.80;89.40;;;;;;4935834;28;20907;-95
2022/07/26 00:38:30;;;;;;;2.93;2.63;;;22.80;89.40;;;;;;4933888;28;20466;-94
2022/07/26 00:40:55;;;;;;;3.13;2.83;;;22.80;89.50;;;;;;4946235;28;20191;-93
2022/07/26 00:43:21;;;;;;;2.40;2.20;;;22.90;90.00;;;;;;4935004;28;20542;-95
2022/07/26 00:45:47;;;;;;;2.77;2.57;;;22.80;89.80;;;;;;4925837;28;20674;-95
2022/07/26 00:48:14;;;;;;;4.73;2.60;;;22.90;90.20;;;;;;4936273;28;20183;-95
2022/07/26 00:50:48;;;;;;;3.50;2.00;;;22.70;90.40;;;;;;4935217;28;20195;-94
2022/07/26 00:53:14;;;;;;;2.57;2.37;;;22.70;90.50;;;;;;4917244;28;20458;-94
2022/07/26 00:55:42;;;;;;;3.47;2.23;;;22.70;90.50;;;;;;4931490;28;20477;-95
2022/07/26 00:58:08;;;;;;;2.23;1.80;;;22.70;90.80;;;;;;4961978;28;20182;-93
2022/07/26 01:00:36;;;;;;;2.77;2.47;;;22.70;90.80;;;;;;4935134;28;21094;-95
2022/07/26 01:03:04;;;;;;;2.03;1.83;;;22.60;91.20;;;;;;4914801;28;20199;-96
2022/07/26 01:05:44;;;;;;;3.63;1.87;;;22.50;91.40;;;;;;4921169;28;20458;-95
2022/07/26 01:08:10;;;;;;;3.77;1.90;;;22.40;91.80;;;;;;4927071;28;20552;-94
2022/07/26 01:10:38;;;;;;;1.93;1.83;;;22.40;92.00;;;;;;4966698;28;20450;-93
2022/07/26 01:13:04;;;;;;;2.73;1.50;;;22.50;92.30;;;;;;4965050;28;20195;-95
2022/07/26 01:15:30;;;;;;;1.83;1.50;;;22.40;92.50;;;;;;4934683;28;20886;-94
2022/07/26 01:17:57;;;;;;;3.60;2.00;;;22.40;92.80;;;;;;4936969;28;20442;-94
2022/07/26 01:20:23;;;;;;;2.10;1.90;;;22.40;93.00;;;;;;4931212;28;20190;-94
2022/07/26 01:22:49;;;;;;;1.60;1.50;;;22.40;93.00;;;;;;4930539;28;20550;-95
2022/07/26 01:25:16;;;;;;;1.93;1.50;;;22.40;93.20;;;;;;4931638;28;20218;-94
2022/07/26 01:27:45;;;;;;;3.30;1.70;;;22.40;93.30;;;;;;4933212;28;20194;-94
2022/07/26 01:30:15;;;;;;;1.80;1.53;;;22.40;93.40;;;;;;4940212;28;20472;-94
2022/07/26 01:32:41;;;;;;;1.70;1.60;;;22.40;93.40;;;;;;4926318;28;20541;-94
2022/07/26 01:35:07;;;;;;;2.90;1.50;;;22.30;94.00;;;;;;4961500;28;20493;-94
2022/07/26 01:37:33;;;;;;;2.20;1.63;;;22.30;93.90;;;;;;4915938;28;20191;-96
2022/07/26 01:39:59;;;;;;;2.20;1.50;;;22.30;93.90;;;;;;4956431;28;20980;-93
2022/07/26 01:42:25;;;;;;;5.27;1.63;;;22.30;94.10;;;;;;4943855;28;20194;-94
2022/07/26 01:44:52;;;;;;;2.13;1.63;;;22.30;94.10;;;;;;4933294;28;20446;-94
2022/07/26 01:47:18;;;;;;;1.73;1.53;;;22.30;94.10;;;;;;4942188;28;20277;-94
2022/07/26 01:49:44;;;;;;;2.00;1.40;;;22.40;94.10;;;;;;4914057;28;21070;-92
2022/07/26 01:52:12;;;;;;;2.27;1.83;;;22.30;94.30;;;;;;4948225;28;20467;-92
2022/07/26 01:54:37;;;;;;;4.70;1.93;;;22.20;94.80;;;;;;4928635;28;20736;-93
2022/07/26 01:57:03;;;;;;;2.50;1.70;;;22.10;95.80;;;;;;4923584;28;20449;-93
2022/07/26 01:59:37;;;;;;;2.03;1.70;;;21.80;97.20;;;;;;4955637;28;20282;-92
2022/07/26 02:02:12;;;;;;;4.67;2.00;;;21.70;98.40;;;;;;4961969;28;20316;-91
2022/07/26 02:04:59;;;;;;;3.33;1.70;;;21.50;99.60;;;;;;4931499;28;20513;-93
2022/07/26 02:07:31;;;;;;;2.07;1.50;;;21.30;99.90;;;;;;4936458;28;20801;-94
2022/07/26 02:09:57;;;;;;;2.40;1.93;;;21.20;99.90;;;;;;4939270;28;20889;-95
2022/07/26 02:12:23;;;;;;;1.80;1.70;;;21.20;99.90;;;;;;4935369;28;20470;-94
2022/07/26 02:14:50;;;;;;;2.57;1.63;;;21.10;99.90;;;;;;4962280;28;20891;-93
2022/07/26 02:17:16;;;;;;;2.33;2.10;;;21.20;99.90;;;;;;4942221;28;20269;-94
2022/07/26 02:19:41;;;;;;;2.83;1.60;;;21.30;99.90;;;;;;4953659;28;20479;-93
2022/07/26 02:22:07;;;;;;;2.23;2.10;;;21.30;99.90;;;;;;4934230;28;20545;-94
2022/07/26 02:24:40;;;;;;;1.53;1.43;;;21.40;99.90;;;;;;4935341;28;20199;-94
2022/07/26 02:27:06;;;;;;;1.83;1.73;;;21.50;99.90;;;;;;4935832;28;20184;-95
2022/07/26 02:29:32;;;;;;;2.10;1.90;;;21.50;99.90;;;;;;4945941;28;20517;-94
2022/07/26 02:31:58;;;;;;;2.10;1.90;;;21.40;99.90;;;;;;4961835;28;20305;-93
2022/07/26 02:34:25;;;;;;;1.80;1.70;;;21.30;99.90;;;;;;4937784;28;20381;-94
2022/07/26 02:36:52;;;;;;;2.00;1.63;;;21.30;99.90;;;;;;4929099;28;20705;-95
2022/07/26 02:39:18;;;;;;;1.80;1.60;;;21.30;99.90;;;;;;4929858;28;20472;-93
2022/07/26 02:41:46;;;;;;;2.90;1.50;;;21.40;99.90;;;;;;4959534;28;20447;-93
2022/07/26 02:44:13;;;;;;;2.80;1.80;;;21.40;99.90;;;;;;4925691;28;20463;-92
2022/07/26 02:46:45;;;;;;;2.20;2.10;;;21.40;99.90;;;;;;4926886;28;20486;-93
2022/07/26 02:49:11;;;;;;;1.93;1.73;;;21.40;99.90;;;;;;4960231;28;20508;-93
2022/07/26 02:51:57;;;;;;;2.40;2.20;;;21.40;99.90;;;;;;4948134;28;20491;-93
2022/07/26 02:54:53;;;;;;;2.63;2.37;;;21.40;99.90;;;;;;4932913;28;20238;-92
2022/07/26 02:57:20;;;;;;;1.87;1.77;;;21.30;99.90;;;;;;4927713;28;20538;-92
2022/07/26 02:59:46;;;;;;;1.77;1.67;;;21.40;99.90;;;;;;4921389;28;20443;-92
2022/07/26 03:02:11;;;;;;;2.70;1.80;;;21.30;99.90;;;;;;4932579;28;21043;-93
2022/07/26 03:04:37;;;;;;;1.60;1.50;;;21.30;99.90;;;;;;4918685;28;20249;-92
2022/07/26 03:07:03;;;;;;;1.63;1.53;;;21.30;99.90;;;;;;4926685;28;20201;-92
2022/07/26 03:09:30;;;;;;;2.30;1.90;;;21.40;99.90;;;;;;4958486;28;20717;-92
2022/07/26 03:11:55;;;;;;;2.23;1.50;;;21.30;99.90;;;;;;4926758;28;20222;-93
2022/07/26 03:14:27;;;;;;;2.13;1.20;;;21.30;99.90;;;;;;4927314;28;20458;-93
2022/07/26 03:16:52;;;;;;;2.63;1.77;;;21.30;99.90;;;;;;4929657;28;20250;-93
2022/07/26 03:19:18;;;;;;;1.80;1.50;;;21.30;99.90;;;;;;4937135;28;20537;-93
2022/07/26 03:21:43;;;;;;;2.60;1.70;;;21.40;99.90;;;;;;4962333;28;20346;-93
2022/07/26 03:24:10;;;;;;;3.50;1.70;;;21.30;99.90;;;;;;4967476;28;20203;-92
2022/07/26 03:26:36;;;;;;;2.60;1.70;;;21.30;99.90;;;;;;4924914;28;20187;-93
2022/07/26 03:29:03;;;;;;;2.73;1.63;;;21.20;99.90;;;;;;4958688;28;21046;-92
2022/07/26 03:31:31;;;;;;;1.60;1.50;;;21.20;99.90;;;;;;4927086;28;20754;-93
2022/07/26 03:34:01;;;;;;;1.43;1.33;;;21.20;99.90;;;;;;4928950;28;20908;-93
2022/07/26 03:36:29;;;;;;;2.17;1.60;;;21.30;99.90;;;;;;4930184;28;20552;-92
2022/07/26 03:38:55;;;;;;;3.73;1.70;;;21.30;99.90;;;;;;4942588;28;21170;-91
2022/07/26 03:41:20;;;;;;;1.47;1.37;;;21.40;99.90;;;;;;4958224;28;20575;-92
2022/07/26 03:43:46;;;;;;;3.53;1.70;;;21.40;99.90;;;;;;4933057;28;20187;-91
2022/07/26 03:46:37;;;;;;;1.40;1.30;;;21.50;99.90;;;;;;4933097;28;20294;-93
2022/07/26 03:49:03;;;;;;;2.27;1.60;;;21.40;99.90;;;;;;4970736;28;20525;-93
2022/07/26 03:51:28;;;;;;;1.70;1.60;;;21.40;99.90;;;;;;4930377;28;20456;-94
2022/07/26 03:53:55;;;;;;;1.57;1.47;;;21.40;99.90;;;;;;4938153;28;20442;-93
2022/07/26 03:56:30;;;;;;;2.77;2.40;;;21.30;99.90;;;;;;4935180;28;20253;-93
2022/07/26 03:59:08;;;;;;;2.70;2.00;;;21.20;99.90;;;;;;4935743;28;20438;-93
2022/07/26 04:01:40;;;;;;;1.90;1.67;;;21.30;99.90;;;;;;4942234;28;20457;-94
2022/07/26 04:04:20;;;;;;;2.30;2.10;;;21.30;99.90;;;;;;4940059;28;21104;-93
2022/07/26 04:07:14;;;;;;;3.13;2.87;;;21.30;99.90;;;;;;4945469;28;20500;-91
2022/07/26 04:10:00;;;;;;;2.73;2.53;;;21.20;99.90;;;;;;4925463;28;20449;-92
2022/07/26 04:12:25;;;;;;;2.43;2.20;;;21.10;99.90;;;;;;4927564;28;21241;-92
2022/07/26 04:15:07;;;;;;;1.90;1.80;;;21.10;99.90;;;;;;4964027;28;20218;-94
2022/07/26 04:17:37;;;;;;;2.60;2.40;;;21.00;99.90;;;;;;4946873;28;20805;-93
2022/07/26 04:20:03;;;;;;;2.57;2.37;;;21.00;99.90;;;;;;4932761;28;20828;-95
2022/07/26 04:22:30;;;;;;;2.00;1.90;;;20.90;99.90;;;;;;4929018;28;21504;-96
2022/07/26 04:24:56;;;;;;;2.33;1.80;;;20.90;99.90;;;;;;4933727;28;20447;-91
2022/07/26 04:27:46;;;;;;;1.80;1.50;;;20.90;99.90;;;;;;4939741;28;20853;-94
2022/07/26 04:30:12;;;;;;;2.00;1.90;;;20.90;99.90;;;;;;4935777;28;20278;-93
2022/07/26 04:32:38;;;;;;;3.33;1.90;;;20.90;99.90;;;;;;4963264;28;20493;-93
2022/07/26 04:35:07;;;;;;;3.73;2.13;;;20.90;99.90;;;;;;4937863;28;20223;-96
2022/07/26 04:37:38;;;;;;;3.00;1.83;;;21.00;99.90;;;;;;4930331;28;20171;-93
2022/07/26 04:40:04;;;;;;;2.20;1.90;;;21.00;99.90;;;;;;4954726;28;20539;-93
2022/07/26 04:42:30;;;;;;;1.60;1.50;;;21.00;99.90;;;;;;4930004;28;20442;-92
2022/07/26 04:44:55;;;;;;;2.83;1.77;;;21.10;99.90;;;;;;4942514;28;20449;-92
2022/07/26 04:47:21;;;;;;;2.30;2.10;;;21.00;99.90;;;;;;4937931;28;20201;-92
2022/07/26 04:49:46;;;;;;;1.80;1.70;;;21.10;99.90;;;;;;4964208;28;20186;-91
2022/07/26 04:52:12;;;;;;;2.53;2.20;;;21.20;99.90;;;;;;4929416;28;20306;-91
2022/07/26 04:54:38;;;;;;;1.80;1.70;;;20.90;99.90;;;;;;4922346;28;20926;-91
2022/07/26 04:57:03;;;;;;;1.97;1.80;;;20.80;99.90;;;;;;4956740;28;20191;-92
2022/07/26 04:59:29;;;;;;;1.80;1.70;;;20.70;99.90;;;;;;4936134;28;20317;-90
2022/07/26 05:01:55;;;;;;;2.27;1.80;;;20.60;99.90;;;;;;4927278;28;20183;-91
2022/07/26 05:04:20;;;;;;;2.60;1.73;;;20.60;99.90;;;;;;4930918;28;20218;-92
2022/07/26 05:06:46;;;;;;;2.27;2.10;;;20.60;99.90;;;;;;4923254;28;20190;-89
2022/07/26 05:09:12;;;;;;;2.80;1.90;;;20.60;99.90;;;;;;4918267;28;20194;-91
2022/07/26 05:11:37;;;;;;;2.10;2.00;;;20.80;99.90;;;;;;4924112;28;20179;-92
2022/07/26 05:14:03;;;;;;;2.73;2.37;;;21.00;99.90;;;;;;4922356;28;20198;-93
2022/07/26 05:16:29;;;;;;;2.17;1.97;;;21.20;99.90;;;;;;4926869;28;20733;-91
2022/07/26 05:18:57;;;;;;;2.50;2.30;;;21.30;99.90;;;;;;4929622;28;20190;-91
2022/07/26 05:21:22;;;;;;;1.93;1.80;;;21.40;99.90;;;;;;4959632;28;20362;-91
2022/07/26 05:23:56;;;;;;;2.00;1.90;;;21.40;99.90;;;;;;4930024;28;20441;-90
2022/07/26 05:26:36;;;;;;;2.50;2.30;;;21.30;99.90;;;;;;4932232;28;20458;-92
2022/07/26 05:29:02;;;;;;;2.10;2.00;;;21.10;99.90;;;;;;4947730;28;20526;-91
2022/07/26 05:31:28;;;;;;;2.67;1.90;;;21.10;99.90;;;;;;4918917;28;20297;-90
2022/07/26 05:33:54;;;;;;;2.07;1.80;;;21.10;99.90;;;;;;4919584;28;20787;-91
2022/07/26 05:36:20;;;;;;;2.50;2.30;;;21.30;99.90;;;;;;4926491;28;20325;-90
2022/07/26 05:38:49;;;;;;;3.33;2.73;;;21.20;99.90;;;;;;4930808;28;21132;-89
2022/07/26 05:41:16;;;;;;;2.90;2.70;;;21.10;99.90;;;;;;4922906;28;20544;-91
2022/07/26 05:43:47;;;;;;;2.60;2.40;;;21.10;99.90;;;;;;4926175;28;20480;-91
2022/07/26 05:46:19;;;;;;;2.47;2.27;;;21.00;99.90;;;;;;4953911;28;20446;-89
2022/07/26 05:48:56;;;;;;;2.87;2.50;;;20.90;99.90;;;;;;4934678;28;20461;-91
2022/07/26 05:51:47;;;;;;;4.33;2.60;;;20.80;99.90;;;;;;4973130;28;20557;-93
2022/07/26 05:55:09;;;;;;;3.03;2.83;;;20.80;99.90;;;;;;4937926;28;20199;-93
2022/07/26 05:57:58;;;;;;;2.87;2.67;;;20.70;99.90;;;;;;4976530;28;20431;-96
2022/07/26 06:00:39;;;;;;;2.83;2.63;;;20.70;99.90;;;;;;4965705;28;20454;-95
2022/07/26 06:03:23;;;;;;;3.90;3.33;;;20.60;99.90;;;;;;4982332;28;20457;-95
2022/07/26 06:05:50;;;;;;;3.63;3.03;;;20.60;99.90;;;;;;4947029;28;20195;-94
2022/07/26 06:08:16;;;;;;;3.40;3.10;;;20.60;99.90;;;;;;4945346;28;20582;-96
2022/07/26 06:10:42;;;;;;;3.20;3.00;;;20.80;99.90;;;;;;4948900;28;20449;-94
2022/07/26 06:13:09;;;;;;;3.43;3.13;;;21.10;99.90;;;;;;4949029;28;20441;-94
2022/07/26 06:15:37;;;;;;;3.97;3.10;;;21.30;99.90;;;;;;4950275;28;20211;-96
2022/07/26 06:18:08;;;;;;;3.70;3.40;;;21.40;99.90;;;;;;4939273;28;20445;-95
2022/07/26 06:21:02;;;;;;;4.43;3.33;;;21.60;99.90;;;;;;4945941;28;20454;-95
2022/07/26 06:23:50;;;;;;;3.77;3.47;;;21.60;99.90;;;;;;4976277;28;20463;-96
2022/07/26 06:26:15;;;;;;;4.00;3.57;;;21.50;99.90;;;;;;4944276;28;20767;-94
2022/07/26 06:29:12;;;;;;;3.80;3.37;;;21.50;99.90;;;;;;4943494;28;20434;-96
2022/07/26 07:14:42;;;;;;;5.33;2.80;;;22.30;98.30;;;;;;4927516;28;20494;-92
2022/07/26 07:17:08;;;;;;;2.90;2.03;;;22.30;98.30;;;;;;4927812;28;20442;-94
2022/07/26 07:19:36;;;;;;;2.90;2.60;;;22.40;98.30;;;;;;4919437;28;20568;-92
2022/07/26 07:22:10;;;;;;;3.73;2.87;;;22.30;98.40;;;;;;4926612;28;20434;-92
2022/07/26 07:24:40;;;;;;;2.17;2.03;;;22.10;98.60;;;;;;4927207;28;20458;-93
2022/07/26 07:27:08;;;;;;;4.47;2.50;;;22.00;98.50;;;;;;4916179;28;20763;-93
2022/07/26 07:29:34;;;;;;;2.40;2.10;;;22.00;98.80;;;;;;4928579;28;20433;-92
2022/07/26 07:32:34;;;;;;;2.93;2.63;;;21.90;97.80;;;;;;4907653;28;20601;-93
2022/07/26 07:35:04;;;;;;;2.70;2.20;;;21.80;97.30;;;;;;4911114;28;20924;-96
2022/07/26 07:37:40;;;;;;;2.97;2.20;;;21.90;97.50;;;;;;4925602;28;20445;-95
2022/07/26 07:40:07;;;;;;;3.37;2.07;;;22.10;96.60;;;;;;4941920;28;20580;-93
2022/07/26 07:42:33;;;;;;;3.40;2.00;;;22.10;96.50;;;;;;4914667;28;20450;-94
2022/07/26 07:44:59;;;;;;;3.40;2.40;;;22.00;96.80;;;;;;4923003;28;20452;-93
2022/07/26 07:47:24;;;;;;;2.10;2.00;;;22.00;96.60;;;;;;4923269;28;20983;-93
2022/07/26 07:49:51;;;;;;;2.83;2.23;;;22.10;96.60;;;;;;4927487;28;20179;-94
2022/07/26 07:52:17;;;;;;;4.50;2.40;;;22.10;95.70;;;;;;4927649;28;20194;-95
2022/07/26 07:54:43;;;;;;;2.57;1.70;;;22.20;95.90;;;;;;4921937;28;20477;-93
2022/07/26 07:57:09;;;;;;;4.90;1.90;;;22.10;95.80;;;;;;4908141;28;20188;-93
2022/07/26 07:59:35;;;;;;;2.53;1.70;;;22.30;95.00;;;;;;4914794;28;20453;-92
2022/07/26 08:02:00;;;;;;;2.43;2.23;;;22.40;95.20;;;;;;4928566;28;20203;-92
2022/07/26 08:04:26;;;;;;;3.07;2.17;;;22.20;94.90;;;;;;4919427;28;20783;-91
2022/07/26 08:06:51;;;;;;;2.10;1.90;;;22.30;95.40;;;;;;4916853;28;20234;-92
2022/07/26 08:09:34;;;;;;;3.90;2.03;;;22.50;94.70;;;;;;4928484;28;20191;-92
2022/07/26 08:12:18;;;;;;;6.00;2.40;;;22.70;94.60;;;;;;4925251;28;20214;-94
2022/07/26 08:14:44;;;;;;;3.63;1.77;;;22.80;92.80;;;;;;4930138;28;20479;-93
2022/07/26 08:17:37;;;;;;;2.20;2.00;;;22.70;93.50;;;;;;4935649;28;21029;-95
2022/07/26 08:20:03;;;;;;;2.87;1.90;;;22.50;93.30;;;;;;4937473;28;20533;-94
2022/07/26 08:23:02;;;;;;;2.23;2.00;;;22.60;92.70;;;;;;4946358;28;20446;-95
2022/07/26 08:25:33;;;;;;;3.30;2.00;;;22.70;92.20;;;;;;4959928;28;20477;-95
2022/07/26 08:27:59;;;;;;;4.83;1.60;;;23.00;92.00;;;;;;4929693;28;20450;-94
2022/07/26 08:30:24;;;;;;;2.60;1.80;;;23.30;91.30;;;;;;4926548;28;20790;-94
2022/07/26 08:32:50;;;;;;;2.00;1.87;;;23.60;90.60;;;;;;4922384;28;20537;-94
2022/07/26 08:35:15;;;;;;;2.07;1.80;;;23.70;91.20;;;;;;4917465;28;20309;-95
2022/07/26 08:37:49;;;;;;;2.40;1.77;;;24.00;90.10;;;;;;4906870;28;20191;-95
2022/07/26 08:40:15;;;;;;;3.37;1.80;;;23.90;89.80;;;;;;4919811;28;20210;-96
2022/07/26 08:42:54;;;;;;;2.33;1.57;;;23.80;88.80;;;;;;4920001;28;20438;-94
2022/07/26 08:45:29;;;;;;;1.57;1.47;;;23.80;88.90;;;;;;4928572;28;20211;-95
2022/07/26 08:47:55;;;;;;;2.27;1.63;;;23.80;89.00;;;;;;4910021;28;22397;-92
2022/07/26 08:50:21;;;;;;;2.70;1.40;;;23.70;87.20;;;;;;4914384;28;20901;-94
2022/07/26 08:53:05;;;;;;;2.63;1.43;;;23.30;87.30;;;;;;4921421;28;20439;-93
2022/07/26 08:55:31;;;;;;;3.70;1.67;;;23.10;88.10;;;;;;4916125;28;20230;-93
2022/07/26 08:57:57;;;;;;;2.77;2.03;;;22.90;88.10;;;;;;4916289;28;20836;-92
2022/07/26 09:00:36;;;;;;;3.17;1.83;;;22.80;87.80;;;;;;4911265;28;21555;-93
2022/07/26 09:03:03;;;;;;;2.00;1.50;;;22.80;90.00;;;;;;4919243;28;20198;-94
2022/07/26 09:05:31;;;;;;;2.30;1.60;;;22.90;89.20;;;;;;4924879;28;20528;-95
2022/07/26 09:07:59;;;;;;;1.93;1.63;;;23.20;89.70;;;;;;4904679;28;20458;-92
2022/07/26 09:11:05;;;;;;;;;;;;;;;;;;;;;
2022/07/26 09:14:03;;;;;;;7.57;1.80;;;24.10;84.00;;;;;;4939176;28;20464;-95
2022/07/26 09:16:59;;;;;;;2.60;1.37;;;24.50;82.20;;;;;;4916025;28;20482;-95
2022/07/26 09:19:44;;;;;;;11.93;10.17;;;24.50;80.80;;;;;;4942187;28;20443;-96
2022/07/26 09:22:13;;;;;;;2.00;1.43;;;24.50;81.60;;;;;;4954405;28;20438;-92
2022/07/26 09:24:44;;;;;;;1.67;1.57;;;24.50;82.80;;;;;;4942597;28;20510;-96
2022/07/26 09:30:01;;;;;;;4.30;1.60;;;24.20;82.60;;;;;;5060683;23;20522;-94
2022/07/26 09:32:26;;;;;;;2.23;1.57;;;24.30;81.20;;;;;;4915054;29;24590;-95
2022/07/26 09:35:12;;;;;;;4.30;1.30;;;23.90;80.60;;;;;;4903113;29;20463;-93
2022/07/26 09:37:41;;;;;;;1.77;1.63;;;23.90;82.00;;;;;;4929373;28;20191;-93
2022/07/26 09:40:13;;;;;;;1.40;1.40;;;24.40;79.60;;;;;;4925000;28;20530;-95
2022/07/26 09:43:00;;;;;;;1.93;1.40;;;23.90;81.00;;;;;;4924465;28;20444;-95
2022/07/26 09:45:28;;;;;;;2.00;1.40;;;24.00;81.10;;;;;;4889760;29;21081;-93
2022/07/26 09:47:54;;;;;;;3.10;1.50;;;24.00;80.90;;;;;;4895191;29;20444;-94
2022/07/26 09:50:30;;;;;;;3.37;1.60;;;23.90;81.50;;;;;;4911267;29;20954;-94
2022/07/26 09:53:02;;;;;;;2.40;1.43;;;24.00;80.80;;;;;;4910853;29;20677;-92
2022/07/26 09:55:30;;;;;;;2.90;2.20;;;24.20;81.80;;;;;;4906245;29;20533;-92
2022/07/26 09:57:58;;;;;;;1.80;1.47;;;24.10;79.70;;;;;;4910788;29;20447;-93
2022/07/26 10:00:25;;;;;;;4.53;2.20;;;24.20;78.40;;;;;;4908869;29;20552;-93
2022/07/26 10:02:53;;;;;;;1.53;1.43;;;24.40;78.40;;;;;;4893922;28;20471;-90
2022/07/26 10:05:20;;;;;;;4.00;1.80;;;24.50;76.80;;;;;;4931907;28;20443;-92
2022/07/26 10:07:50;;;;;;;1.97;1.53;;;24.80;75.60;;;;;;4916506;29;20506;-95
2022/07/26 10:10:49;;;;;;;2.20;1.60;;;24.90;74.80;;;;;;4914259;29;20514;-94
2022/07/26 10:13:16;;;;;;;1.50;1.30;;;25.20;76.00;;;;;;4897952;29;20490;-92
2022/07/26 10:15:50;;;;;;;2.97;1.50;;;25.30;75.30;;;;;;4908164;28;20487;-93
2022/07/26 10:18:35;;;;;;;1.17;1.07;;;25.30;75.80;;;;;;4915668;28;20448;-91
2022/07/26 10:21:23;;;;;;;1.50;1.37;;;24.70;74.70;;;;;;4906361;29;21304;-91
2022/07/26 10:24:01;;;;;;;1.90;1.40;;;24.50;75.80;;;;;;4909698;29;20440;-90
2022/07/26 10:26:34;;;;;;;3.67;1.10;;;24.50;74.30;;;;;;4915813;28;20448;-89
2022/07/26 10:29:15;;;;;;;2.03;1.30;;;24.90;75.80;;;;;;4905473;29;20462;-92
2022/07/26 10:32:00;;;;;;;3.23;1.40;;;25.00;72.60;;;;;;4905795;29;20459;-91
2022/07/26 10:34:39;;;;;;;1.83;1.13;;;25.10;72.20;;;;;;4904332;29;20450;-92
2022/07/26 10:37:08;;;;;;;4.17;1.77;;;25.40;72.80;;;;;;4907749;29;20457;-89
2022/07/26 10:39:35;;;;;;;1.47;1.37;;;25.30;73.60;;;;;;4919748;28;20939;-90
2022/07/26 10:42:09;;;;;;;1.53;1.43;;;25.20;72.90;;;;;;4911610;29;20455;-89
2022/07/26 10:44:45;;;;;;;2.97;1.30;;;25.20;73.80;;;;;;4927296;28;20467;-89
2022/07/26 10:47:14;;;;;;;2.67;1.30;;;25.60;73.20;;;;;;4915595;29;20449;-93
2022/07/26 10:50:30;;;;;;;4.30;1.30;;;25.40;71.50;;;;;;4935956;28;20528;-95
2022/07/26 10:53:01;;;;;;;2.80;1.40;;;25.50;72.50;;;;;;4929126;29;20457;-94
2022/07/26 10:57:02;;;;;;;1.90;1.10;;;25.20;73.80;;;;;;4922708;29;20644;-95
2022/07/26 10:59:06;;;;;;;3.83;1.37;;;25.20;73.60;;;;;;4888317;28;20452;-96
2022/07/26 11:01:42;;;;;;;2.20;1.20;;;25.40;72.50;;;;;;4937223;29;20454;-94
2022/07/26 11:04:21;;;;;;;1.70;1.27;;;25.00;71.40;;;;;;4926990;29;20443;-96
2022/07/26 14:21:03;;;;;;;1.97;1.87;;;31.20;47.20;;;;;;4966500;28;20818;-94
2022/07/26 14:23:35;;;;;;;20.63;18.33;;;31.90;46.30;;;;;;4953213;28;20460;-96
2022/07/26 14:26:00;;;;;;;11.80;10.80;;;31.10;48.10;;;;;;4946863;28;21204;-95
2022/07/26 14:28:26;;;;;;;6.27;5.67;;;33.00;45.70;;;;;;4960361;28;20928;-94
2022/07/26 14:30:53;;;;;;;1.60;1.50;;;35.20;44.70;;;;;;4961548;28;20514;-96
2022/07/26 14:33:20;;;;;;;4.50;2.50;;;36.80;38.80;;;;;;4959018;28;20193;-94
2022/07/26 14:35:45;;;;;;;1.53;1.10;;;34.00;40.70;;;;;;4958455;28;20472;-93
2022/07/26 14:38:12;;;;;;;0.80;0.73;;;33.20;43.60;;;;;;4962002;28;20456;-94
2022/07/26 14:40:38;;;;;;;1.23;0.90;;;35.10;42.30;;;;;;4962931;28;20276;-93
2022/07/26 14:43:06;;;;;;;2.50;1.03;;;37.90;38.60;;;;;;4954949;28;20452;-93
2022/07/26 14:45:31;;;;;;;1.43;0.70;;;35.50;38.30;;;;;;4945270;28;20276;-94
2022/07/26 14:47:57;;;;;;;1.10;0.90;;;33.10;40.90;;;;;;4937225;28;20813;-92
2022/07/26 14:50:28;;;;;;;1.23;1.10;;;32.40;43.10;;;;;;4959808;28;20887;-95
2022/07/26 14:52:55;;;;;;;1.30;0.60;;;32.30;43.30;;;;;;4953275;28;20636;-94
2022/07/26 14:55:21;;;;;;;0.87;0.87;;;31.40;43.30;;;;;;4955548;28;20469;-95
2022/07/26 14:57:46;;;;;;;0.90;0.90;;;30.20;45.40;;;;;;4961622;28;21343;-94
2022/07/26 15:00:16;;;;;;;1.40;0.90;;;29.80;46.30;;;;;;4955553;28;20276;-93
2022/07/26 15:02:47;;;;;;;1.23;1.13;;;29.00;46.40;;;;;;4959514;28;20186;-93
2022/07/26 15:05:13;;;;;;;2.13;0.80;;;28.50;48.40;;;;;;4960800;28;21222;-92
2022/07/26 15:07:40;;;;;;;2.40;1.00;;;28.30;48.00;;;;;;4963339;28;20442;-94
2022/07/26 15:10:09;;;;;;;2.17;1.00;;;28.60;47.80;;;;;;4951646;28;20487;-92
2022/07/26 15:12:34;;;;;;;1.50;1.40;;;28.20;48.10;;;;;;4961861;28;20460;-95
2022/07/26 15:15:00;;;;;;;2.03;1.00;;;27.80;49.00;;;;;;4958616;28;20499;-94
2022/07/26 15:17:26;;;;;;;1.03;0.93;;;27.40;49.30;;;;;;4960521;28;20194;-96
2022/07/26 15:19:54;;;;;;;1.23;1.10;;;27.60;51.60;;;;;;4961654;28;20244;-93
2022/07/26 15:22:19;;;;;;;1.47;1.00;;;28.50;48.40;;;;;;4957835;28;20452;-94
2022/07/26 15:24:45;;;;;;;1.37;1.10;;;28.20;48.30;;;;;;4954849;28;20449;-92
2022/07/26 15:27:11;;;;;;;1.60;1.20;;;27.40;48.70;;;;;;4962201;28;20733;-94
2022/07/26 15:29:36;;;;;;;2.70;0.73;;;26.70;50.00;;;;;;4974599;28;20230;-96
2022/07/26 15:32:08;;;;;;;0.87;0.87;;;26.80;50.80;;;;;;4957236;28;20348;-94
2022/07/26 15:34:34;;;;;;;1.63;1.00;;;28.50;50.50;;;;;;4961091;28;20348;-94
2022/07/26 15:37:03;;;;;;;1.27;0.90;;;29.50;46.70;;;;;;4947022;28;20567;-93
2022/07/26 15:39:40;;;;;;;3.60;1.10;;;29.60;46.00;;;;;;4958123;28;20194;-93
2022/07/26 15:42:17;;;;;;;1.47;1.00;;;29.40;47.00;;;;;;4968500;28;20495;-95
2022/07/26 15:44:42;;;;;;;1.20;1.10;;;28.20;48.40;;;;;;4986894;28;20953;-92
2022/07/26 15:47:16;;;;;;;0.80;0.80;;;27.30;48.20;;;;;;4963167;28;20444;-96
2022/07/26 15:49:41;;;;;;;2.27;1.03;;;26.90;50.80;;;;;;4961670;28;20974;-92
2022/07/26 15:52:10;;;;;;;2.00;1.10;;;26.40;49.40;;;;;;4964256;28;20454;-92
2022/07/26 15:54:37;;;;;;;2.50;0.80;;;26.30;50.30;;;;;;4957749;28;21155;-91
2022/07/26 15:57:07;;;;;;;1.10;1.00;;;26.30;50.60;;;;;;4964263;28;20492;-93
2022/07/26 15:59:33;;;;;;;4.03;0.90;;;26.40;51.60;;;;;;4963965;28;20671;-92
2022/07/26 16:01:59;;;;;;;1.00;1.00;;;26.70;50.70;;;;;;4953217;28;20447;-92
2022/07/26 16:04:27;;;;;;;1.07;1.00;;;28.80;49.90;;;;;;4966412;28;20193;-95
2022/07/26 16:06:52;;;;;;;0.73;0.73;;;33.10;44.80;;;;;;4968795;28;20197;-94
2022/07/26 16:09:34;;;;;;;2.23;1.00;;;35.10;41.90;;;;;;4956324;28;20491;-93
2022/07/26 16:12:13;;;;;;;1.53;1.07;;;36.00;39.00;;;;;;4964866;28;20698;-95
2022/07/26 16:14:38;;;;;;;2.17;1.17;;;37.00;39.00;;;;;;4956023;28;20471;-92
2022/07/26 16:17:04;;;;;;;2.67;0.97;;;33.60;38.20;;;;;;4966005;28;20576;-92
2022/07/26 16:19:32;;;;;;;1.07;0.97;;;30.30;43.30;;;;;;4992159;28;20453;-94
2022/07/26 16:21:58;;;;;;;1.40;1.13;;;31.70;45.90;;;;;;4943790;28;20755;-94
2022/07/26 16:24:24;;;;;;;0.90;0.90;;;35.20;41.20;;;;;;4966129;28;20470;-94
2022/07/26 16:26:50;;;;;;;2.70;1.10;;;35.40;38.50;;;;;;4969173;28;22009;-92
2022/07/26 16:29:16;;;;;;;1.10;1.00;;;33.70;39.10;;;;;;4962972;28;20185;-93
2022/07/26 16:31:43;;;;;;;0.80;0.80;;;33.10;41.40;;;;;;4959155;28;20452;-91
2022/07/26 16:34:09;;;;;;;0.90;0.80;;;33.00;40.90;;;;;;4963741;28;20192;-92
2022/07/26 16:36:39;;;;;;;2.90;0.90;;;31.90;40.70;;;;;;4961996;28;20477;-92
2022/07/26 16:39:04;;;;;;;2.50;1.20;;;31.60;42.10;;;;;;4969684;28;20182;-93
2022/07/26 16:41:30;;;;;;;1.33;1.20;;;31.10;44.00;;;;;;4984481;28;20452;-92
2022/07/26 16:43:56;;;;;;;2.83;1.70;;;29.50;44.20;;;;;;5001336;28;20192;-93
2022/07/26 16:46:23;;;;;;;1.10;1.00;;;28.10;47.00;;;;;;4963060;28;20909;-93
2022/07/26 16:48:59;;;;;;;1.97;1.20;;;30.40;47.10;;;;;;4954165;28;20190;-93
2022/07/26 16:51:24;;;;;;;2.30;1.20;;;33.40;42.50;;;;;;4989732;28;20499;-94
2022/07/26 16:53:52;;;;;;;1.60;0.80;;;36.50;38.80;;;;;;4959333;28;20542;-92
2022/07/26 16:56:18;;;;;;;1.00;0.70;;;37.90;37.00;;;;;;4961028;28;20342;-95
2022/07/26 16:58:44;;;;;;;3.13;1.70;;;35.80;37.30;;;;;;4956590;28;20890;-93
2022/07/26 17:01:14;;;;;;;2.70;0.80;;;33.80;39.80;;;;;;4961128;28;20193;-93
2022/07/26 17:03:43;;;;;;;1.30;1.00;;;34.60;39.10;;;;;;4964739;28;20189;-93
2022/07/26 17:06:08;;;;;;;1.40;1.30;;;35.00;37.30;;;;;;4964328;28;20440;-93